Time;durP1;ratioP1;P1;durP2;ratioP2;P2;SDS_P1;SDS_P2;PMS_P1;PMS_P2;Temp;Humidity;BMP_temperature;BMP_pressure;BME280_temperature;BME280_humidity;BME280_pressure;Samples;Min_cycle;Max_cycle;Signal;HPM_P1;HPM_P2
2023/06/15 00:01:43;;;;;;;3.50;1.50;;;;;;;;;;5281896;28;20027;-72
2023/06/15 00:04:15;;;;;;;3.47;1.60;;;;;;;;;;5283251;28;20743;-72
2023/06/15 00:06:46;;;;;;;5.05;1.67;;;;;;;;;;5282697;28;20306;-72
2023/06/15 00:09:17;;;;;;;2.38;1.60;;;;;;;;;;5282309;28;20422;-72
2023/06/15 00:11:49;;;;;;;4.25;1.88;;;;;;;;;;5282864;28;20013;-72
2023/06/15 00:14:20;;;;;;;5.95;1.85;;;;;;;;;;5283112;28;20117;-72
2023/06/15 00:16:54;;;;;;;3.33;1.77;;;;;;;;;;5281554;28;20029;-72
2023/06/15 00:19:26;;;;;;;5.82;1.60;;;;;;;;;;5282617;28;20263;-72
2023/06/15 00:21:57;;;;;;;4.43;1.60;;;;;;;;;;5282497;28;20031;-73
2023/06/15 00:24:28;;;;;;;3.93;1.40;;;;;;;;;;5281939;28;20054;-73
2023/06/15 00:26:59;;;;;;;4.10;1.38;;;;;;;;;;5282636;28;20290;-73
2023/06/15 00:29:31;;;;;;;3.58;1.73;;;;;;;;;;5281164;28;20129;-73
2023/06/15 00:32:03;;;;;;;5.17;1.70;;;;;;;;;;5282411;28;20060;-73
2023/06/15 00:34:34;;;;;;;3.20;1.27;;;;;;;;;;5282161;28;20328;-73
2023/06/15 00:37:06;;;;;;;4.50;2.03;;;;;;;;;;5281821;28;20020;-73
2023/06/15 00:39:37;;;;;;;3.83;1.55;;;;;;;;;;5282459;28;20059;-73
2023/06/15 00:42:08;;;;;;;3.53;1.33;;;;;;;;;;5282314;28;20021;-73
2023/06/15 00:44:39;;;;;;;4.90;1.50;;;;;;;;;;5281160;28;20262;-74
2023/06/15 00:47:11;;;;;;;5.55;1.70;;;;;;;;;;5282590;28;20625;-72
2023/06/15 00:49:42;;;;;;;2.75;1.77;;;;;;;;;;5281505;28;20021;-73
2023/06/15 00:52:14;;;;;;;4.50;1.88;;;;;;;;;;5281705;28;20482;-73
2023/06/15 00:54:46;;;;;;;3.15;1.73;;;;;;;;;;5281613;28;20134;-73
2023/06/15 00:57:18;;;;;;;2.67;1.55;;;;;;;;;;5282364;28;20374;-72
2023/06/15 00:59:50;;;;;;;2.22;1.52;;;;;;;;;;5280893;28;20020;-72
2023/06/15 01:02:24;;;;;;;3.50;1.90;;;;;;;;;;5282406;28;20081;-73
2023/06/15 01:04:55;;;;;;;4.28;1.88;;;;;;;;;;5281180;28;20031;-72
2023/06/15 01:07:27;;;;;;;5.17;1.83;;;;;;;;;;5281892;28;20467;-74
2023/06/15 01:09:59;;;;;;;2.85;2.10;;;;;;;;;;5281798;28;20716;-72
2023/06/15 01:12:30;;;;;;;2.72;1.83;;;;;;;;;;5281350;28;20032;-71
2023/06/15 01:15:02;;;;;;;3.20;1.38;;;;;;;;;;5281791;28;20067;-71
2023/06/15 01:17:34;;;;;;;4.80;1.92;;;;;;;;;;5281847;28;20024;-71
2023/06/15 01:20:07;;;;;;;4.53;2.25;;;;;;;;;;5280919;28;20021;-71
2023/06/15 01:22:49;;;;;;;4.88;1.48;;;;;;;;;;5282122;28;20012;-72
2023/06/15 01:25:29;;;;;;;2.78;1.70;;;;;;;;;;5282322;28;20013;-71
2023/06/15 01:28:02;;;;;;;5.05;1.80;;;;;;;;;;5280906;28;20036;-72
2023/06/15 01:30:53;;;;;;;4.95;1.50;;;;;;;;;;5281618;28;20120;-71
2023/06/15 01:33:24;;;;;;;2.03;1.27;;;;;;;;;;5280793;28;20479;-72
2023/06/15 01:35:56;;;;;;;2.63;1.45;;;;;;;;;;5281342;28;20027;-71
2023/06/15 01:38:28;;;;;;;5.63;1.73;;;;;;;;;;5281673;28;20370;-71
2023/06/15 01:41:00;;;;;;;5.43;2.00;;;;;;;;;;5282208;28;20402;-71
2023/06/15 01:43:32;;;;;;;4.28;1.80;;;;;;;;;;5285830;28;20544;-70
2023/06/15 01:46:04;;;;;;;3.38;1.50;;;;;;;;;;5285883;28;20044;-71
2023/06/15 01:48:36;;;;;;;3.35;1.88;;;;;;;;;;5284992;28;20024;-71
2023/06/15 01:51:08;;;;;;;5.15;1.77;;;;;;;;;;5285367;28;20044;-71
2023/06/15 01:53:39;;;;;;;3.38;1.40;;;;;;;;;;5285369;28;20036;-71
2023/06/15 01:56:11;;;;;;;2.97;1.70;;;;;;;;;;5285156;28;20019;-71
2023/06/15 01:58:42;;;;;;;5.45;1.85;;;;;;;;;;5285181;28;20047;-73
2023/06/15 02:01:13;;;;;;;8.15;2.00;;;;;;;;;;5285045;28;20471;-71
2023/06/15 02:03:44;;;;;;;6.72;2.30;;;;;;;;;;5284984;28;20046;-72
2023/06/15 02:06:16;;;;;;;5.27;2.23;;;;;;;;;;5285627;28;20021;-72
2023/06/15 02:08:47;;;;;;;4.73;2.40;;;;;;;;;;5284127;28;20265;-72
2023/06/15 02:11:18;;;;;;;3.90;2.28;;;;;;;;;;5285767;28;20262;-72
2023/06/15 02:13:49;;;;;;;4.20;2.28;;;;;;;;;;5284878;28;20048;-71
2023/06/15 02:16:22;;;;;;;4.20;1.75;;;;;;;;;;5284633;28;20032;-72
2023/06/15 02:18:53;;;;;;;2.70;2.00;;;;;;;;;;5284611;28;20059;-72
2023/06/15 02:21:24;;;;;;;8.88;2.35;;;;;;;;;;5285333;28;20044;-72
2023/06/15 02:23:56;;;;;;;2.73;2.07;;;;;;;;;;5284455;28;20039;-71
2023/06/15 02:26:27;;;;;;;5.00;2.85;;;;;;;;;;5284974;28;20250;-72
2023/06/15 02:28:58;;;;;;;4.77;2.47;;;;;;;;;;5284240;28;20024;-72
2023/06/15 02:31:30;;;;;;;3.40;2.57;;;;;;;;;;5284936;28;20777;-72
2023/06/15 02:34:02;;;;;;;3.28;2.35;;;;;;;;;;5284632;28;20278;-72
2023/06/15 02:36:34;;;;;;;3.50;2.15;;;;;;;;;;5283920;28;20383;-71
2023/06/15 02:39:06;;;;;;;3.58;2.35;;;;;;;;;;5284891;28;20074;-71
2023/06/15 02:41:38;;;;;;;8.70;2.08;;;;;;;;;;5284684;28;20020;-71
2023/06/15 02:44:09;;;;;;;5.72;2.83;;;;;;;;;;5283923;28;20042;-72
2023/06/15 02:46:40;;;;;;;4.88;2.55;;;;;;;;;;5284354;28;20024;-72
2023/06/15 02:49:11;;;;;;;4.45;2.88;;;;;;;;;;5284817;28;20040;-72
2023/06/15 02:51:43;;;;;;;4.25;2.38;;;;;;;;;;5282584;28;20139;-72
2023/06/15 02:54:14;;;;;;;5.30;2.33;;;;;;;;;;5284601;28;20028;-72
2023/06/15 02:56:45;;;;;;;9.67;2.73;;;;;;;;;;5284100;28;20271;-72
2023/06/15 02:59:17;;;;;;;3.83;2.50;;;;;;;;;;5283912;28;20320;-72
2023/06/15 03:01:49;;;;;;;3.80;2.63;;;;;;;;;;5284056;28;20043;-73
2023/06/15 03:04:23;;;;;;;3.75;2.55;;;;;;;;;;5283563;28;20028;-72
2023/06/15 03:06:56;;;;;;;4.10;2.00;;;;;;;;;;5283990;28;20061;-72
2023/06/15 03:09:27;;;;;;;4.60;2.20;;;;;;;;;;5284088;28;20025;-73
2023/06/15 03:11:58;;;;;;;2.80;2.22;;;;;;;;;;5283236;28;20496;-74
2023/06/15 03:14:29;;;;;;;6.53;2.85;;;;;;;;;;5283708;28;20787;-74
2023/06/15 03:17:01;;;;;;;3.33;2.53;;;;;;;;;;5283780;28;20792;-74
2023/06/15 03:19:32;;;;;;;4.25;2.03;;;;;;;;;;5283065;28;20267;-74
2023/06/15 03:22:03;;;;;;;5.03;2.95;;;;;;;;;;5283744;28;20013;-72
2023/06/15 03:24:35;;;;;;;3.13;2.45;;;;;;;;;;5283884;28;20274;-72
2023/06/15 03:27:06;;;;;;;6.90;2.55;;;;;;;;;;5282840;28;20012;-72
2023/06/15 03:29:37;;;;;;;5.90;2.63;;;;;;;;;;5283892;28;20028;-73
2023/06/15 03:32:09;;;;;;;9.23;2.95;;;;;;;;;;5283697;28;20096;-72
2023/06/15 03:34:40;;;;;;;6.40;2.67;;;;;;;;;;5282445;28;20028;-72
2023/06/15 03:37:11;;;;;;;5.40;2.87;;;;;;;;;;5283750;28;20062;-72
2023/06/15 03:39:42;;;;;;;9.13;2.50;;;;;;;;;;5282208;28;20816;-73
2023/06/15 03:42:14;;;;;;;6.22;2.75;;;;;;;;;;5283941;28;20012;-72
2023/06/15 03:44:45;;;;;;;4.72;2.50;;;;;;;;;;5283120;28;20024;-72
2023/06/15 03:47:17;;;;;;;3.50;2.73;;;;;;;;;;5282900;28;20455;-72
2023/06/15 03:49:48;;;;;;;5.53;2.77;;;;;;;;;;5282726;28;20306;-72
2023/06/15 03:52:19;;;;;;;5.60;3.38;;;;;;;;;;5283465;28;20251;-72
2023/06/15 03:54:50;;;;;;;5.65;2.72;;;;;;;;;;5282191;28;20283;-72
2023/06/15 03:57:22;;;;;;;4.95;3.22;;;;;;;;;;5283427;28;20027;-72
2023/06/15 03:59:53;;;;;;;6.67;2.90;;;;;;;;;;5282742;28;20025;-72
2023/06/15 04:02:24;;;;;;;7.75;2.95;;;;;;;;;;5282137;28;20350;-75
2023/06/15 04:04:56;;;;;;;6.05;3.28;;;;;;;;;;5281803;28;20020;-74
2023/06/15 04:07:28;;;;;;;5.35;3.72;;;;;;;;;;5282449;28;20138;-74
2023/06/15 04:09:59;;;;;;;5.97;3.38;;;;;;;;;;5282777;28;20078;-73
2023/06/15 04:12:30;;;;;;;8.57;3.58;;;;;;;;;;5282777;28;20024;-73
2023/06/15 04:15:01;;;;;;;7.10;3.90;;;;;;;;;;5281666;28;20058;-73
2023/06/15 04:17:32;;;;;;;5.35;4.03;;;;;;;;;;5282657;28;20478;-73
2023/06/15 04:20:05;;;;;;;6.53;3.57;;;;;;;;;;5282628;28;20039;-73
2023/06/15 04:22:36;;;;;;;14.73;5.10;;;;;;;;;;5281806;28;20338;-73
2023/06/15 04:25:08;;;;;;;7.80;3.97;;;;;;;;;;5282645;28;20434;-71
2023/06/15 04:27:39;;;;;;;8.18;3.70;;;;;;;;;;5282372;28;20262;-72
2023/06/15 04:30:16;;;;;;;9.43;4.50;;;;;;;;;;5282063;28;20473;-72
2023/06/15 04:32:57;;;;;;;4.60;4.07;;;;;;;;;;5282096;28;20380;-72
2023/06/15 04:35:31;;;;;;;6.75;3.92;;;;;;;;;;5282343;28;20036;-72
2023/06/15 04:38:05;;;;;;;7.80;4.72;;;;;;;;;;5281403;28;20096;-72
2023/06/15 04:40:37;;;;;;;6.10;4.35;;;;;;;;;;5282112;28;20055;-72
2023/06/15 04:43:08;;;;;;;8.50;4.47;;;;;;;;;;5281495;28;20031;-72
2023/06/15 04:45:40;;;;;;;4.90;4.07;;;;;;;;;;5281800;28;20028;-72
2023/06/15 04:48:11;;;;;;;6.00;4.53;;;;;;;;;;5282415;28;20462;-72
2023/06/15 04:50:47;;;;;;;7.70;4.72;;;;;;;;;;5280706;28;20312;-72
2023/06/15 04:53:19;;;;;;;7.07;5.10;;;;;;;;;;5282442;28;20063;-72
2023/06/15 04:55:51;;;;;;;6.75;4.60;;;;;;;;;;5282021;28;20056;-72
2023/06/15 04:58:22;;;;;;;6.22;4.53;;;;;;;;;;5281687;28;20025;-72
2023/06/15 05:00:53;;;;;;;8.10;5.40;;;;;;;;;;5281580;28;20017;-72
2023/06/15 05:03:24;;;;;;;5.40;4.80;;;;;;;;;;5281785;28;20044;-72
2023/06/15 05:05:56;;;;;;;6.30;4.95;;;;;;;;;;5280776;28;20293;-72
2023/06/15 05:08:27;;;;;;;7.05;5.43;;;;;;;;;;5281492;28;20025;-72
2023/06/15 05:10:58;;;;;;;9.90;5.82;;;;;;;;;;5280847;28;20021;-72
2023/06/15 05:13:30;;;;;;;5.97;5.07;;;;;;;;;;5281467;28;20372;-73
2023/06/15 05:16:01;;;;;;;6.80;5.60;;;;;;;;;;5281625;28;20017;-73
2023/06/15 05:18:32;;;;;;;5.90;5.32;;;;;;;;;;5280788;28;20024;-71
2023/06/15 05:21:03;;;;;;;5.30;4.90;;;;;;;;;;5281739;28;20528;-73
2023/06/15 05:23:35;;;;;;;7.23;5.23;;;;;;;;;;5281763;28;20290;-73
2023/06/15 05:26:06;;;;;;;8.20;5.47;;;;;;;;;;5280853;28;20267;-71
2023/06/15 05:28:37;;;;;;;6.50;5.88;;;;;;;;;;5281406;28;20020;-73
2023/06/15 05:31:09;;;;;;;8.53;5.17;;;;;;;;;;5281693;28;20382;-74
2023/06/15 05:33:41;;;;;;;9.52;6.13;;;;;;;;;;5280385;28;20291;-73
2023/06/15 05:36:12;;;;;;;8.80;5.47;;;;;;;;;;5281951;28;20013;-73
2023/06/15 05:38:43;;;;;;;8.60;5.70;;;;;;;;;;5281042;28;20052;-73
2023/06/15 05:41:14;;;;;;;7.18;5.20;;;;;;;;;;5281038;28;20355;-73
2023/06/15 05:43:45;;;;;;;7.63;5.40;;;;;;;;;;5280981;28;20365;-73
2023/06/15 05:46:16;;;;;;;7.82;5.30;;;;;;;;;;5280837;28;20345;-72
2023/06/15 05:48:47;;;;;;;6.18;5.57;;;;;;;;;;5281021;28;20263;-73
2023/06/15 05:51:19;;;;;;;7.43;6.17;;;;;;;;;;5281498;28;20336;-73
2023/06/15 05:53:50;;;;;;;7.75;6.15;;;;;;;;;;5280379;28;20290;-74
2023/06/15 05:56:21;;;;;;;11.97;6.67;;;;;;;;;;5281843;28;20103;-72
2023/06/15 05:58:53;;;;;;;7.07;6.38;;;;;;;;;;5281005;28;20277;-72
2023/06/15 06:01:24;;;;;;;8.00;7.15;;;;;;;;;;5280293;28;20028;-71
2023/06/15 06:03:55;;;;;;;10.13;6.50;;;;;;;;;;5281334;28;20451;-72
2023/06/15 06:06:26;;;;;;;7.95;7.10;;;;;;;;;;5281347;28;20055;-73
2023/06/15 06:08:58;;;;;;;9.07;6.97;;;;;;;;;;5280395;28;20021;-72
2023/06/15 06:11:29;;;;;;;10.65;7.63;;;;;;;;;;5281057;28;20427;-72
2023/06/15 06:14:00;;;;;;;9.65;8.13;;;;;;;;;;5280798;28;20086;-73
2023/06/15 06:16:32;;;;;;;9.98;6.57;;;;;;;;;;5281059;28;20012;-73
2023/06/15 06:19:03;;;;;;;11.73;6.90;;;;;;;;;;5281030;28;20055;-72
2023/06/15 06:21:34;;;;;;;11.48;6.95;;;;;;;;;;5280014;28;20255;-72
2023/06/15 06:24:05;;;;;;;8.95;6.32;;;;;;;;;;5280046;28;20517;-72
2023/06/15 06:26:37;;;;;;;12.00;7.60;;;;;;;;;;5281678;28;20487;-72
2023/06/15 06:29:08;;;;;;;12.38;7.68;;;;;;;;;;5283806;28;20083;-74
2023/06/15 06:31:39;;;;;;;12.13;6.25;;;;;;;;;;5284589;28;20439;-74
2023/06/15 06:34:10;;;;;;;9.40;6.65;;;;;;;;;;5284871;28;20060;-74
2023/06/15 06:36:42;;;;;;;10.73;5.38;;;;;;;;;;5283428;28;20021;-74
2023/06/15 06:39:13;;;;;;;9.77;5.70;;;;;;;;;;5285195;28;20463;-75
2023/06/15 06:41:45;;;;;;;9.70;5.63;;;;;;;;;;5284450;28;20317;-76
2023/06/15 06:44:16;;;;;;;11.10;5.22;;;;;;;;;;5283923;28;20294;-72
2023/06/15 06:46:48;;;;;;;5.82;3.95;;;;;;;;;;5284497;28;20426;-74
2023/06/15 06:49:19;;;;;;;7.85;4.00;;;;;;;;;;5283759;28;20429;-73
2023/06/15 06:51:50;;;;;;;5.43;4.43;;;;;;;;;;5283679;28;20048;-74
2023/06/15 06:54:21;;;;;;;8.43;3.97;;;;;;;;;;5284313;28;20290;-74
2023/06/15 06:56:52;;;;;;;6.30;4.80;;;;;;;;;;5283207;28;20802;-75
2023/06/15 06:59:24;;;;;;;11.65;4.38;;;;;;;;;;5284025;28;20070;-73
2023/06/15 07:01:55;;;;;;;6.83;3.97;;;;;;;;;;5283997;28;20058;-73
2023/06/15 07:04:26;;;;;;;6.68;4.30;;;;;;;;;;5283237;28;20274;-75
2023/06/15 07:06:57;;;;;;;9.27;4.40;;;;;;;;;;5284254;28;20455;-73
2023/06/15 07:09:28;;;;;;;10.40;4.80;;;;;;;;;;5284045;28;20275;-74
2023/06/15 07:12:00;;;;;;;5.03;3.83;;;;;;;;;;5282929;28;20417;-73
2023/06/15 07:14:31;;;;;;;12.43;4.35;;;;;;;;;;5283422;28;20414;-74
2023/06/15 07:17:02;;;;;;;7.97;3.57;;;;;;;;;;5280075;28;20024;-74
2023/06/15 07:19:34;;;;;;;7.65;3.95;;;;;;;;;;5282646;28;20820;-73
2023/06/15 07:22:05;;;;;;;6.90;3.03;;;;;;;;;;5283339;28;20095;-73
2023/06/15 07:24:36;;;;;;;6.00;2.30;;;;;;;;;;5282431;28;20266;-73
2023/06/15 07:27:07;;;;;;;4.95;2.53;;;;;;;;;;5283089;28;20266;-73
2023/06/15 07:29:38;;;;;;;7.37;2.40;;;;;;;;;;5283126;28;20028;-74
2023/06/15 07:32:09;;;;;;;6.60;2.17;;;;;;;;;;5282528;28;20625;-74
2023/06/15 07:34:41;;;;;;;4.63;1.63;;;;;;;;;;5282615;28;20363;-75
2023/06/15 07:37:12;;;;;;;6.88;2.15;;;;;;;;;;5283315;28;20076;-74
2023/06/15 07:39:43;;;;;;;3.00;1.60;;;;;;;;;;5280735;28;20021;-74
2023/06/15 07:42:14;;;;;;;3.50;1.70;;;;;;;;;;5283849;28;20278;-74
2023/06/15 07:44:45;;;;;;;7.97;2.00;;;;;;;;;;5282824;28;20286;-73
2023/06/15 07:47:17;;;;;;;4.50;1.70;;;;;;;;;;5282720;28;20441;-73
2023/06/15 07:49:48;;;;;;;5.07;1.67;;;;;;;;;;5282575;28;20293;-74
2023/06/15 07:52:19;;;;;;;4.57;1.60;;;;;;;;;;5283481;28;20021;-73
2023/06/15 07:54:50;;;;;;;4.20;2.20;;;;;;;;;;5281828;28;20083;-74
2023/06/15 07:57:22;;;;;;;4.93;1.67;;;;;;;;;;5282889;28;20255;-74
2023/06/15 07:59:53;;;;;;;8.90;2.10;;;;;;;;;;5281887;28;20504;-74
2023/06/15 08:02:24;;;;;;;2.80;1.55;;;;;;;;;;5282907;28;20082;-74
2023/06/15 08:04:55;;;;;;;7.80;1.55;;;;;;;;;;5282427;28;20095;-75
2023/06/15 08:07:28;;;;;;;5.27;1.53;;;;;;;;;;5281649;28;20012;-75
2023/06/15 08:09:59;;;;;;;4.57;1.70;;;;;;;;;;5282509;28;20278;-75
2023/06/15 08:12:31;;;;;;;4.80;1.60;;;;;;;;;;5282362;28;20016;-75
2023/06/15 08:15:02;;;;;;;6.63;1.37;;;;;;;;;;5281455;28;20050;-77
2023/06/15 08:17:33;;;;;;;5.30;1.35;;;;;;;;;;5282551;28;20294;-74
2023/06/15 08:20:09;;;;;;;5.68;1.70;;;;;;;;;;5282718;28;20052;-71
2023/06/15 08:22:40;;;;;;;6.80;1.30;;;;;;;;;;5281479;28;20017;-71
2023/06/15 08:25:12;;;;;;;3.03;1.17;;;;;;;;;;5282456;28;20024;-71
2023/06/15 08:27:43;;;;;;;4.15;1.00;;;;;;;;;;5281392;28;20271;-72
2023/06/15 08:30:14;;;;;;;4.50;1.00;;;;;;;;;;5282368;28;20020;-72
2023/06/15 08:32:46;;;;;;;5.15;0.93;;;;;;;;;;5281977;28;20812;-72
2023/06/15 08:35:17;;;;;;;5.67;1.17;;;;;;;;;;5282058;28;20051;-72
2023/06/15 08:37:49;;;;;;;5.68;1.08;;;;;;;;;;5282064;28;20769;-72
2023/06/15 08:40:20;;;;;;;3.85;1.10;;;;;;;;;;5282713;28;20017;-73
2023/06/15 08:42:52;;;;;;;5.45;0.98;;;;;;;;;;5281201;28;20020;-76
2023/06/15 08:45:26;;;;;;;3.15;1.10;;;;;;;;;;5281825;28;20482;-75
2023/06/15 08:47:58;;;;;;;5.20;1.00;;;;;;;;;;5282047;28;20100;-76
2023/06/15 08:50:32;;;;;;;5.25;0.90;;;;;;;;;;5280166;28;20056;-76
2023/06/15 08:53:04;;;;;;;2.55;0.75;;;;;;;;;;5280073;28;20367;-76
2023/06/15 08:55:36;;;;;;;4.78;0.90;;;;;;;;;;5280142;28;20378;-75
2023/06/15 08:58:08;;;;;;;6.55;1.00;;;;;;;;;;5281129;28;20450;-77
2023/06/15 09:00:39;;;;;;;7.35;1.00;;;;;;;;;;5281755;28;20024;-77
2023/06/15 09:03:11;;;;;;;4.63;0.80;;;;;;;;;;5281651;28;20082;-76
2023/06/15 09:05:42;;;;;;;5.45;0.90;;;;;;;;;;5281488;28;20551;-76
2023/06/15 09:08:14;;;;;;;4.75;0.98;;;;;;;;;;5282211;28;20016;-76
2023/06/15 09:10:45;;;;;;;8.05;0.90;;;;;;;;;;5280839;28;20096;-76
2023/06/15 09:13:16;;;;;;;6.80;0.70;;;;;;;;;;5281950;28;20054;-74
2023/06/15 09:15:57;;;;;;;3.22;0.70;;;;;;;;;;5281729;28;20277;-77
2023/06/15 09:18:28;;;;;;;3.13;0.70;;;;;;;;;;5280955;28;20375;-76
2023/06/15 09:21:00;;;;;;;2.92;0.70;;;;;;;;;;5281771;28;20020;-77
2023/06/15 09:23:32;;;;;;;4.20;0.70;;;;;;;;;;5281679;28;20386;-77
2023/06/15 09:26:04;;;;;;;4.07;0.90;;;;;;;;;;5280596;28;20093;-77
2023/06/15 09:28:43;;;;;;;3.28;0.80;;;;;;;;;;5281558;28;20016;-77
2023/06/15 09:31:33;;;;;;;2.72;0.88;;;;;;;;;;5281148;28;20104;-76
2023/06/15 09:34:05;;;;;;;5.28;0.77;;;;;;;;;;5281338;28;20479;-75
2023/06/15 09:36:49;;;;;;;2.47;0.70;;;;;;;;;;5281278;28;20024;-75
2023/06/15 09:39:22;;;;;;;6.72;0.90;;;;;;;;;;5281122;28;20020;-75
2023/06/15 09:42:00;;;;;;;2.17;0.70;;;;;;;;;;5281029;28;20086;-75
2023/06/15 09:44:33;;;;;;;3.03;0.70;;;;;;;;;;5281274;28;20052;-76
2023/06/15 09:47:13;;;;;;;7.90;1.55;;;;;;;;;;5281207;28;20091;-76
2023/06/15 09:49:44;;;;;;;5.30;0.80;;;;;;;;;;5281010;28;20105;-76
2023/06/15 09:52:15;;;;;;;1.50;0.70;;;;;;;;;;5280872;28;20443;-76
2023/06/15 09:54:47;;;;;;;3.60;0.70;;;;;;;;;;5280779;28;20799;-76
2023/06/15 09:57:19;;;;;;;4.43;0.70;;;;;;;;;;5281746;28;20293;-77
2023/06/15 09:59:51;;;;;;;3.50;0.80;;;;;;;;;;5280308;28;20017;-75
2023/06/15 10:02:22;;;;;;;3.00;1.27;;;;;;;;;;5283699;28;20038;-76
2023/06/15 10:04:53;;;;;;;4.82;1.10;;;;;;;;;;5285098;28;20013;-77
2023/06/15 10:07:25;;;;;;;5.75;1.13;;;;;;;;;;5284343;28;20020;-75
2023/06/15 10:09:56;;;;;;;3.88;1.10;;;;;;;;;;5285296;28;20066;-76
2023/06/15 10:12:28;;;;;;;4.93;1.00;;;;;;;;;;5284800;28;20027;-77
2023/06/15 10:15:02;;;;;;;4.63;1.15;;;;;;;;;;5283549;28;20127;-77
2023/06/15 10:17:35;;;;;;;3.97;0.98;;;;;;;;;;5284297;28;20080;-76
2023/06/15 10:20:16;;;;;;;1.60;0.73;;;;;;;;;;5284537;28;20020;-76
2023/06/15 10:22:48;;;;;;;2.33;0.80;;;;;;;;;;5284685;28;20025;-77
2023/06/15 10:25:20;;;;;;;4.63;1.00;;;;;;;;;;5285143;28;20024;-76
2023/06/15 10:27:52;;;;;;;4.55;1.23;;;;;;;;;;5283830;28;20025;-76
2023/06/15 10:30:28;;;;;;;5.32;1.25;;;;;;;;;;5284834;28;20031;-77
2023/06/15 10:33:16;;;;;;;5.43;1.23;;;;;;;;;;5284510;28;20036;-76
2023/06/15 10:35:53;;;;;;;3.33;0.90;;;;;;;;;;5283348;28;20378;-77
2023/06/15 10:38:30;;;;;;;4.97;1.00;;;;;;;;;;5284447;28;20103;-77
2023/06/15 10:41:01;;;;;;;6.05;1.05;;;;;;;;;;5284356;28;20459;-75
2023/06/15 10:43:32;;;;;;;4.68;1.00;;;;;;;;;;5283612;28;20016;-76
2023/06/15 10:46:06;;;;;;;4.05;1.08;;;;;;;;;;5284243;28;20104;-76
2023/06/15 10:48:38;;;;;;;2.92;0.85;;;;;;;;;;5283596;28;20373;-76
2023/06/15 10:51:12;;;;;;;3.42;1.20;;;;;;;;;;5283735;28;20055;-76
2023/06/15 10:53:43;;;;;;;3.03;0.98;;;;;;;;;;5284189;28;20425;-76
2023/06/15 10:56:15;;;;;;;2.33;0.85;;;;;;;;;;5283747;28;20012;-76
2023/06/15 10:58:56;;;;;;;3.83;1.10;;;;;;;;;;5283661;28;20016;-77
2023/06/15 11:01:28;;;;;;;6.28;1.10;;;;;;;;;;5284166;28;20027;-77
2023/06/15 11:04:00;;;;;;;2.75;0.90;;;;;;;;;;5283373;28;20021;-77
2023/06/15 11:06:33;;;;;;;1.60;0.80;;;;;;;;;;5283848;28;20021;-77
2023/06/15 11:09:12;;;;;;;5.57;1.60;;;;;;;;;;5283880;28;20123;-76
2023/06/15 11:11:43;;;;;;;4.90;0.90;;;;;;;;;;5282511;28;20028;-76
2023/06/15 11:14:21;;;;;;;2.50;1.10;;;;;;;;;;5283279;28;20421;-76
2023/06/15 11:17:03;;;;;;;3.80;1.27;;;;;;;;;;5282765;28;20255;-75
2023/06/15 11:19:41;;;;;;;6.28;1.52;;;;;;;;;;5283240;28;20016;-75
2023/06/15 11:22:18;;;;;;;3.00;1.02;;;;;;;;;;5283381;28;20031;-76
2023/06/15 11:24:52;;;;;;;3.05;0.90;;;;;;;;;;5282274;28;20020;-75
2023/06/15 11:27:25;;;;;;;8.88;1.00;;;;;;;;;;5283274;28;20391;-74
2023/06/15 11:29:56;;;;;;;3.13;0.98;;;;;;;;;;5282894;28;20028;-75
2023/06/15 11:32:27;;;;;;;3.83;1.05;;;;;;;;;;5282288;28;20444;-74
2023/06/15 11:35:03;;;;;;;2.75;1.02;;;;;;;;;;5282984;28;20040;-75
2023/06/15 11:37:35;;;;;;;4.80;1.10;;;;;;;;;;5283002;28;20021;-76
2023/06/15 11:40:06;;;;;;;3.25;1.02;;;;;;;;;;5282990;28;20035;-75
2023/06/15 11:42:38;;;;;;;3.63;1.00;;;;;;;;;;5282888;28;20020;-75
2023/06/15 11:45:18;;;;;;;3.40;0.90;;;;;;;;;;5282360;28;20491;-75
2023/06/15 11:47:49;;;;;;;5.30;1.00;;;;;;;;;;5282465;28;20029;-75
2023/06/15 11:50:23;;;;;;;2.53;0.83;;;;;;;;;;5282733;28;20059;-75
2023/06/15 11:52:55;;;;;;;3.95;1.00;;;;;;;;;;5281817;28;20439;-75
2023/06/15 11:55:26;;;;;;;3.35;0.82;;;;;;;;;;5282395;28;20032;-75
2023/06/15 11:57:57;;;;;;;1.37;0.90;;;;;;;;;;5282765;28;20069;-74
2023/06/15 12:00:28;;;;;;;3.03;1.00;;;;;;;;;;5282438;28;20025;-75
2023/06/15 12:03:00;;;;;;;2.58;1.20;;;;;;;;;;5283217;28;20019;-74
2023/06/15 12:05:31;;;;;;;4.03;1.20;;;;;;;;;;5282437;28;20025;-75
2023/06/15 12:08:03;;;;;;;2.33;0.90;;;;;;;;;;5281681;28;20107;-75
2023/06/15 12:10:35;;;;;;;4.40;1.30;;;;;;;;;;5282414;28;20037;-75
2023/06/15 12:13:12;;;;;;;3.55;1.10;;;;;;;;;;5281604;28;20127;-75
2023/06/15 12:15:47;;;;;;;3.30;1.17;;;;;;;;;;5281765;28;20024;-76
2023/06/15 12:18:19;;;;;;;4.75;1.23;;;;;;;;;;5282338;28;20013;-75
2023/06/15 12:20:50;;;;;;;7.28;1.30;;;;;;;;;;5280799;28;20024;-74
2023/06/15 12:23:29;;;;;;;6.22;1.10;;;;;;;;;;5282396;28;20028;-74
2023/06/15 12:26:01;;;;;;;2.88;1.08;;;;;;;;;;5281317;28;20360;-75
2023/06/15 12:28:32;;;;;;;6.30;1.45;;;;;;;;;;5280951;28;20012;-75
2023/06/15 12:31:04;;;;;;;5.25;1.35;;;;;;;;;;5281715;28;20031;-75
2023/06/15 12:33:38;;;;;;;6.75;0.90;;;;;;;;;;5281463;28;20025;-75
2023/06/15 12:36:10;;;;;;;7.00;1.08;;;;;;;;;;5281204;28;20297;-75
2023/06/15 12:38:46;;;;;;;4.20;1.05;;;;;;;;;;5281197;28;20021;-75
2023/06/15 12:41:18;;;;;;;12.10;1.20;;;;;;;;;;5281232;28;20119;-76
2023/06/15 12:43:49;;;;;;;3.05;1.00;;;;;;;;;;5281750;28;20028;-71
2023/06/15 12:46:20;;;;;;;1.67;0.67;;;;;;;;;;5281904;28;20020;-73
2023/06/15 12:48:52;;;;;;;2.55;1.00;;;;;;;;;;5280758;28;20485;-73
2023/06/15 12:51:23;;;;;;;2.15;0.90;;;;;;;;;;5281721;28;20045;-72
2023/06/15 12:53:56;;;;;;;4.57;1.08;;;;;;;;;;5281488;28;20086;-73
2023/06/15 12:56:27;;;;;;;5.45;1.02;;;;;;;;;;5280906;28;20067;-74
2023/06/15 12:58:58;;;;;;;3.27;1.00;;;;;;;;;;5281531;28;20058;-72
2023/06/15 13:01:31;;;;;;;5.63;1.10;;;;;;;;;;5281656;28;20275;-72
2023/06/15 13:04:02;;;;;;;6.05;1.17;;;;;;;;;;5280486;28;20454;-72
2023/06/15 13:06:33;;;;;;;6.85;0.95;;;;;;;;;;5281418;28;20104;-72
2023/06/15 13:09:04;;;;;;;2.42;0.80;;;;;;;;;;5280284;28;20021;-75
2023/06/15 13:11:36;;;;;;;4.68;0.88;;;;;;;;;;5281348;28;20352;-72
2023/06/15 13:14:08;;;;;;;4.45;1.02;;;;;;;;;;5281309;28;20470;-73
2023/06/15 13:16:39;;;;;;;5.55;1.10;;;;;;;;;;5280456;28;20051;-73
2023/06/15 13:19:10;;;;;;;3.53;1.10;;;;;;;;;;5281569;28;20570;-72
2023/06/15 13:21:41;;;;;;;3.33;1.00;;;;;;;;;;5280476;28;20421;-76
2023/06/15 13:24:13;;;;;;;8.77;1.20;;;;;;;;;;5281099;28;20263;-75
2023/06/15 13:26:44;;;;;;;3.07;0.70;;;;;;;;;;5281302;28;20320;-76
2023/06/15 13:29:15;;;;;;;6.07;1.40;;;;;;;;;;5281769;28;20293;-76
2023/06/15 13:31:46;;;;;;;2.80;0.97;;;;;;;;;;5280275;28;20017;-76
2023/06/15 13:34:17;;;;;;;3.23;1.00;;;;;;;;;;5281831;28;20470;-76
2023/06/15 13:36:48;;;;;;;6.25;1.23;;;;;;;;;;5286020;28;20270;-75
2023/06/15 13:39:20;;;;;;;3.10;1.00;;;;;;;;;;5287940;28;20099;-74
2023/06/15 13:41:51;;;;;;;3.45;1.13;;;;;;;;;;5287914;28;20066;-75
2023/06/15 13:44:22;;;;;;;3.80;1.00;;;;;;;;;;5287626;28;20107;-75
2023/06/15 13:46:53;;;;;;;3.40;1.10;;;;;;;;;;5288099;28;20017;-76
2023/06/15 13:49:25;;;;;;;3.27;0.97;;;;;;;;;;5288184;28;20335;-75
2023/06/15 13:51:56;;;;;;;3.03;0.90;;;;;;;;;;5287165;28;20829;-76
2023/06/15 13:54:27;;;;;;;3.00;1.03;;;;;;;;;;5288072;28;20470;-76
2023/06/15 13:56:58;;;;;;;6.13;1.03;;;;;;;;;;5288338;28;20107;-76
2023/06/15 13:59:30;;;;;;;4.27;0.80;;;;;;;;;;5287540;28;20073;-75
2023/06/15 14:02:02;;;;;;;3.72;1.00;;;;;;;;;;5287903;28;20020;-75
2023/06/15 14:04:34;;;;;;;4.07;1.00;;;;;;;;;;5286082;28;20103;-76
2023/06/15 14:07:05;;;;;;;1.67;0.70;;;;;;;;;;5285034;28;20103;-76
2023/06/15 14:09:36;;;;;;;5.40;1.20;;;;;;;;;;5285984;28;20115;-75
2023/06/15 14:12:08;;;;;;;5.13;0.90;;;;;;;;;;5285654;28;20020;-76
2023/06/15 14:14:39;;;;;;;6.95;0.93;;;;;;;;;;5284728;28;20485;-76
2023/06/15 14:17:10;;;;;;;7.95;0.70;;;;;;;;;;5285972;28;20016;-76
2023/06/15 14:19:42;;;;;;;2.42;0.90;;;;;;;;;;5286989;28;20070;-76
2023/06/15 14:22:13;;;;;;;2.03;0.77;;;;;;;;;;5288272;28;20073;-75
2023/06/15 14:24:44;;;;;;;2.55;0.90;;;;;;;;;;5287717;28;20016;-75
2023/06/15 14:27:15;;;;;;;4.23;1.00;;;;;;;;;;5287479;28;20080;-75
2023/06/15 14:29:47;;;;;;;4.33;0.83;;;;;;;;;;5287395;28;20285;-76
2023/06/15 14:32:18;;;;;;;3.80;1.00;;;;;;;;;;5288254;28;20023;-75
2023/06/15 14:34:49;;;;;;;2.50;0.90;;;;;;;;;;5286617;28;20309;-75
2023/06/15 14:37:20;;;;;;;2.88;0.90;;;;;;;;;;5288136;28;20622;-76
2023/06/15 14:39:51;;;;;;;2.50;1.17;;;;;;;;;;5287404;28;20593;-75
2023/06/15 14:42:23;;;;;;;2.30;1.00;;;;;;;;;;5287212;28;20036;-75
2023/06/15 14:44:55;;;;;;;2.85;0.90;;;;;;;;;;5287711;28;20056;-75
2023/06/15 14:47:26;;;;;;;2.90;0.80;;;;;;;;;;5285709;28;20110;-75
2023/06/15 14:49:58;;;;;;;6.97;1.20;;;;;;;;;;5283747;28;20052;-75
2023/06/15 14:52:29;;;;;;;2.87;0.90;;;;;;;;;;5284434;28;20052;-75
2023/06/15 14:55:00;;;;;;;3.00;1.27;;;;;;;;;;5283387;28;20483;-76
2023/06/15 14:57:31;;;;;;;3.00;1.10;;;;;;;;;;5284573;28;20032;-75
2023/06/15 15:00:06;;;;;;;4.15;1.38;;;;;;;;;;5283926;28;20044;-76
2023/06/15 15:02:38;;;;;;;3.95;0.90;;;;;;;;;;5283539;28;20105;-75
2023/06/15 15:05:09;;;;;;;2.27;0.87;;;;;;;;;;5284023;28;20050;-75
2023/06/15 15:07:40;;;;;;;3.92;1.00;;;;;;;;;;5283962;28;20338;-76
2023/06/15 15:10:11;;;;;;;3.58;0.95;;;;;;;;;;5283683;28;20025;-76
2023/06/15 15:12:43;;;;;;;4.33;1.10;;;;;;;;;;5283583;28;20027;-76